Time;durP1;ratioP1;P1;durP2;ratioP2;P2;SDS_P1;SDS_P2;PMS_P1;PMS_P2;Temp;Humidity;BMP_temperature;BMP_pressure;BME280_temperature;BME280_humidity;BME280_pressure;Samples;Min_cycle;Max_cycle;Signal;HPM_P1;HPM_P2
2023/10/13 00:01:51;;;;;;;66.00;44.57;;;19.90;90.70;;;;;;5108094;28;20211;-65
2023/10/13 00:04:24;;;;;;;70.57;44.07;;;19.90;90.80;;;;;;5103266;28;20197;-65
2023/10/13 00:06:59;;;;;;;59.10;41.27;;;19.90;90.80;;;;;;5102156;28;20294;-65
2023/10/13 00:09:32;;;;;;;66.90;43.57;;;19.90;90.80;;;;;;5105388;28;20199;-65
2023/10/13 00:12:00;;;;;;;71.37;44.20;;;20.00;90.80;;;;;;5105219;28;20209;-65
2023/10/13 00:14:33;;;;;;;62.50;43.73;;;20.00;90.70;;;;;;5108071;28;20255;-65
2023/10/13 00:17:15;;;;;;;64.80;42.93;;;20.00;90.70;;;;;;5100003;28;20645;-65
2023/10/13 00:19:46;;;;;;;62.97;43.80;;;20.00;90.70;;;;;;5102840;28;20250;-65
2023/10/13 00:22:24;;;;;;;53.60;39.93;;;20.00;90.60;;;;;;5098863;28;20192;-65
2023/10/13 00:24:58;;;;;;;59.73;42.23;;;20.00;90.40;;;;;;5103782;28;20218;-65
2023/10/13 00:27:36;;;;;;;62.77;42.67;;;20.00;90.30;;;;;;5105704;28;20212;-64
2023/10/13 00:32:56;;;;;;;59.43;40.63;;;19.90;90.30;;;;;;5105294;28;20293;-65
2023/10/13 00:35:36;;;;;;;56.60;41.50;;;19.80;90.30;;;;;;5111327;28;20858;-65
2023/10/13 00:38:12;;;;;;;60.00;43.77;;;19.70;90.40;;;;;;5109540;28;20199;-64
2023/10/13 00:40:42;;;;;;;60.37;43.67;;;19.70;90.50;;;;;;5106373;28;20326;-66
2023/10/13 00:45:56;;;;;;;63.57;42.47;;;19.60;90.60;;;;;;5107844;28;20207;-65
2023/10/13 00:48:42;;;;;;;58.43;42.03;;;19.60;90.60;;;;;;5104391;28;20200;-65
2023/10/13 00:53:57;;;;;;;59.07;39.30;;;19.50;90.70;;;;;;5098142;28;20204;-66
2023/10/13 00:56:32;;;;;;;55.37;40.03;;;19.40;90.70;;;;;;5098225;28;20220;-65
2023/10/13 00:59:02;;;;;;;56.90;39.53;;;19.40;90.70;;;;;;5115900;27;20217;-64
2023/10/13 01:01:32;;;;;;;51.13;39.60;;;19.30;90.70;;;;;;5109802;28;20254;-65
2023/10/13 01:04:05;;;;;;;56.07;40.10;;;19.30;90.70;;;;;;5108344;28;20200;-64
2023/10/13 01:06:32;;;;;;;57.67;40.67;;;19.30;90.80;;;;;;5106611;28;20273;-65
2023/10/13 01:09:14;;;;;;;54.57;40.13;;;19.20;90.80;;;;;;5101601;28;20497;-65
2023/10/13 01:11:52;;;;;;;58.10;41.73;;;19.10;90.80;;;;;;5104457;28;20212;-65
2023/10/13 01:14:21;;;;;;;56.70;41.77;;;19.20;90.90;;;;;;5100623;28;20204;-65
2023/10/13 01:16:52;;;;;;;58.87;40.00;;;19.10;90.90;;;;;;5103219;28;20576;-65
2023/10/13 01:19:24;;;;;;;61.73;43.10;;;19.10;90.90;;;;;;5101535;28;20253;-65
2023/10/13 01:21:57;;;;;;;61.23;41.70;;;19.10;90.90;;;;;;5100808;28;20230;-66
2023/10/13 01:24:25;;;;;;;58.23;41.10;;;19.10;91.00;;;;;;5099840;28;20516;-65
2023/10/13 01:26:53;;;;;;;55.57;40.53;;;19.00;91.00;;;;;;5098059;28;20193;-64
2023/10/13 01:29:26;;;;;;;56.03;42.40;;;19.10;91.00;;;;;;5102596;28;20656;-65
2023/10/13 01:31:53;;;;;;;66.33;42.73;;;19.00;91.00;;;;;;5099362;28;20236;-65
2023/10/13 01:34:24;;;;;;;67.27;44.47;;;19.10;91.00;;;;;;5106103;28;20200;-65
2023/10/13 01:36:53;;;;;;;66.63;43.43;;;19.00;91.00;;;;;;5084224;28;20211;-65
2023/10/13 01:39:26;;;;;;;55.37;40.77;;;19.00;91.10;;;;;;5101808;28;20200;-65
2023/10/13 01:41:55;;;;;;;57.77;41.20;;;19.00;91.10;;;;;;5101317;28;20520;-65
2023/10/13 01:44:33;;;;;;;60.10;42.70;;;19.00;91.20;;;;;;5101478;28;20212;-65
2023/10/13 01:47:06;;;;;;;64.77;43.20;;;19.00;91.20;;;;;;5098630;28;20208;-65
2023/10/13 01:49:41;;;;;;;59.63;42.00;;;19.00;91.20;;;;;;5099597;28;20675;-65
2023/10/13 01:52:15;;;;;;;57.13;41.00;;;19.00;91.30;;;;;;5104496;28;20661;-65
2023/10/13 01:54:45;;;;;;;57.90;39.93;;;18.90;91.30;;;;;;5094516;28;20231;-65
2023/10/13 01:57:14;;;;;;;60.43;42.73;;;19.00;91.30;;;;;;5102184;28;20226;-65
2023/10/13 01:59:44;;;;;;;58.07;41.70;;;19.00;91.30;;;;;;5106243;28;20225;-65
2023/10/13 02:02:19;;;;;;;53.97;41.47;;;19.00;91.40;;;;;;5101560;28;20632;-65
2023/10/13 02:04:49;;;;;;;63.00;41.83;;;19.00;91.40;;;;;;5096356;28;20214;-65
2023/10/13 02:07:16;;;;;;;55.50;41.17;;;19.00;91.40;;;;;;5103156;28;20274;-65
2023/10/13 02:09:44;;;;;;;66.10;42.77;;;19.00;91.40;;;;;;5104619;28;20867;-64
2023/10/13 02:12:11;;;;;;;57.37;40.57;;;19.00;91.80;;;;;;5110849;28;20256;-64
2023/10/13 02:14:38;;;;;;;56.97;40.33;;;19.00;91.50;;;;;;5100144;28;20223;-64
2023/10/13 02:17:16;;;;;;;62.27;41.83;;;19.10;91.50;;;;;;5099212;28;20840;-65
2023/10/13 02:19:45;;;;;;;60.27;40.70;;;19.00;91.50;;;;;;5103528;28;20200;-65
2023/10/13 02:22:25;;;;;;;50.20;38.73;;;19.00;91.50;;;;;;5107002;28;20203;-65
2023/10/13 02:24:53;;;;;;;56.67;39.67;;;19.10;91.50;;;;;;5095378;28;20214;-65
2023/10/13 02:27:23;;;;;;;51.47;35.60;;;19.00;91.50;;;;;;5103117;28;20212;-65
2023/10/13 02:29:54;;;;;;;54.03;38.73;;;19.00;91.50;;;;;;5103944;28;20231;-65
2023/10/13 02:32:21;;;;;;;50.27;36.07;;;19.00;91.60;;;;;;5101877;28;20223;-65
2023/10/13 02:34:48;;;;;;;53.37;35.20;;;19.00;91.50;;;;;;5101076;28;20203;-64
2023/10/13 02:37:18;;;;;;;46.53;33.07;;;19.00;91.50;;;;;;5105825;28;20525;-65
2023/10/13 02:39:45;;;;;;;44.33;32.40;;;19.00;91.60;;;;;;5100940;28;20254;-66
2023/10/13 02:42:24;;;;;;;51.80;35.17;;;19.00;91.60;;;;;;5101412;28;20197;-65
2023/10/13 02:44:55;;;;;;;46.07;34.27;;;19.00;91.60;;;;;;5105179;28;20355;-65
2023/10/13 02:47:24;;;;;;;49.47;33.97;;;18.90;91.50;;;;;;5103331;28;20188;-65
2023/10/13 02:49:51;;;;;;;51.47;33.93;;;18.90;91.50;;;;;;5106099;28;20252;-65
2023/10/13 02:52:18;;;;;;;49.03;33.87;;;19.00;91.50;;;;;;5105781;28;20251;-65
2023/10/13 02:54:50;;;;;;;48.20;33.00;;;18.90;91.50;;;;;;5104279;28;20262;-65
2023/10/13 02:57:18;;;;;;;45.30;30.83;;;18.90;91.50;;;;;;5112184;28;20617;-65
2023/10/13 02:59:55;;;;;;;43.27;30.73;;;18.90;91.50;;;;;;5107370;28;20265;-65
2023/10/13 03:02:28;;;;;;;41.43;30.73;;;18.90;91.50;;;;;;5101036;28;20195;-65
2023/10/13 03:04:59;;;;;;;48.73;32.17;;;18.80;91.50;;;;;;5106980;28;20192;-64
2023/10/13 03:07:30;;;;;;;46.10;31.30;;;18.90;91.50;;;;;;5106082;28;20209;-64
2023/10/13 03:10:00;;;;;;;48.43;32.40;;;18.80;91.50;;;;;;5110163;28;20521;-64
2023/10/13 03:12:33;;;;;;;47.70;31.60;;;18.80;91.50;;;;;;5109149;28;20191;-65
2023/10/13 03:15:21;;;;;;;44.70;31.90;;;18.80;91.60;;;;;;5109641;28;20204;-65
2023/10/13 03:17:48;;;;;;;40.60;29.50;;;18.80;91.60;;;;;;5107331;28;20398;-65
2023/10/13 03:20:24;;;;;;;42.77;31.10;;;18.80;91.60;;;;;;5110361;28;20207;-65
2023/10/13 03:22:53;;;;;;;48.33;31.57;;;18.80;91.60;;;;;;5107204;28;20186;-66
2023/10/13 03:25:29;;;;;;;42.57;31.70;;;18.80;91.60;;;;;;5104700;28;20310;-66
2023/10/13 03:30:38;;;;;;;44.13;30.10;;;18.70;91.60;;;;;;5104176;28;20299;-65
2023/10/13 03:33:07;;;;;;;49.23;33.00;;;18.70;91.60;;;;;;5102757;28;20228;-64
2023/10/13 03:35:40;;;;;;;44.27;32.73;;;18.70;91.60;;;;;;5103707;28;20221;-65
2023/10/13 03:38:17;;;;;;;45.03;30.87;;;18.70;91.60;;;;;;5105051;28;20205;-65
2023/10/13 03:40:49;;;;;;;39.10;29.50;;;18.70;91.60;;;;;;5103667;28;20201;-65
2023/10/13 03:43:21;;;;;;;43.30;30.60;;;18.70;91.50;;;;;;5107347;28;20330;-65
2023/10/13 03:46:00;;;;;;;45.47;31.80;;;18.70;91.50;;;;;;5098894;28;20206;-65
2023/10/13 03:48:28;;;;;;;45.77;31.03;;;18.60;91.50;;;;;;5108846;28;20695;-65
2023/10/13 03:51:14;;;;;;;45.23;30.93;;;18.60;91.40;;;;;;5110617;28;20239;-65
2023/10/13 03:53:54;;;;;;;47.57;30.10;;;18.60;91.40;;;;;;5108267;28;20522;-65
2023/10/13 03:56:27;;;;;;;40.90;30.10;;;18.60;91.40;;;;;;5104609;28;20661;-67
2023/10/13 03:59:05;;;;;;;42.57;32.40;;;18.50;91.50;;;;;;5101789;28;20197;-65
2023/10/13 04:01:47;;;;;;;46.43;30.67;;;18.50;91.60;;;;;;5105675;28;20204;-64
2023/10/13 04:04:33;;;;;;;46.00;32.00;;;18.50;91.60;;;;;;5105313;28;20284;-64
2023/10/13 04:17:23;;;;;;;36.27;28.10;;;18.60;91.70;;;;;;5104867;28;20599;-65
2023/10/13 04:28:15;;;;;;;44.20;28.83;;;18.50;91.60;;;;;;5078251;28;20223;-65
2023/10/13 04:41:42;;;;;;;44.20;32.07;;;18.60;91.50;;;;;;5101951;28;20203;-64
2023/10/13 04:57:25;;;;;;;45.20;32.60;;;18.50;91.40;;;;;;5098602;28;20207;-65
2023/10/13 05:44:37;;;;;;;59.00;37.93;;;18.00;92.30;;;;;;5102622;28;20196;-65
2023/10/13 06:28:42;;;;;;;61.93;37.63;;;19.00;91.50;;;;;;5112519;28;20198;-65
2023/10/13 06:31:20;;;;;;;59.30;37.70;;;19.10;91.40;;;;;;5103803;28;20819;-65
2023/10/13 06:33:49;;;;;;;51.47;37.67;;;19.10;91.40;;;;;;5104920;28;20211;-65
2023/10/13 06:36:17;;;;;;;294.67;54.97;;;19.20;91.40;;;;;;5106333;28;20665;-65
2023/10/13 06:38:45;;;;;;;52.20;35.97;;;19.20;91.30;;;;;;5110664;28;20761;-65
2023/10/13 06:41:30;;;;;;;53.67;35.30;;;19.30;91.30;;;;;;5106196;28;20227;-65
2023/10/13 06:44:00;;;;;;;51.27;36.73;;;19.30;91.30;;;;;;5103776;28;20557;-65
2023/10/13 06:46:28;;;;;;;50.27;35.60;;;19.40;91.30;;;;;;5104874;28;20529;-65
2023/10/13 06:48:59;;;;;;;56.33;37.97;;;19.50;91.20;;;;;;5108017;28;20231;-65
2023/10/13 06:51:31;;;;;;;57.37;37.37;;;19.50;91.20;;;;;;5101790;28;20681;-65
2023/10/13 06:53:58;;;;;;;54.17;37.67;;;19.70;91.10;;;;;;5106316;28;20214;-65
2023/10/13 06:56:27;;;;;;;52.43;36.80;;;19.70;90.80;;;;;;5104992;28;20765;-65
2023/10/13 06:59:04;;;;;;;55.57;36.97;;;19.90;90.70;;;;;;5112381;28;20196;-66
2023/10/13 07:01:38;;;;;;;53.73;36.63;;;19.90;90.60;;;;;;5109836;28;20200;-65
2023/10/13 07:04:15;;;;;;;59.23;39.10;;;20.10;90.60;;;;;;5106563;28;20230;-66
2023/10/13 07:06:50;;;;;;;56.90;39.23;;;20.20;90.40;;;;;;5105586;28;20204;-65
2023/10/13 07:12:16;;;;;;;53.90;37.90;;;20.50;90.10;;;;;;5110071;28;20199;-65
2023/10/13 07:14:52;;;;;;;64.77;41.27;;;20.50;90.00;;;;;;5105824;28;20215;-65
2023/10/13 07:17:23;;;;;;;55.97;38.20;;;20.60;89.70;;;;;;5111630;28;20276;-66
2023/10/13 07:19:59;;;;;;;51.33;37.00;;;20.80;89.60;;;;;;5105469;28;20633;-66
2023/10/13 07:22:27;;;;;;;56.23;39.07;;;20.80;89.20;;;;;;5108147;28;20273;-65
2023/10/13 07:24:58;;;;;;;57.00;37.97;;;20.90;89.10;;;;;;5106405;28;20208;-65
2023/10/13 07:27:25;;;;;;;53.00;36.63;;;21.00;88.70;;;;;;5112023;28;20246;-65
2023/10/13 07:29:56;;;;;;;59.50;37.73;;;21.10;88.20;;;;;;5105430;28;20209;-66
2023/10/13 07:32:25;;;;;;;49.87;34.33;;;21.10;87.70;;;;;;5105834;28;20204;-65
2023/10/13 07:34:55;;;;;;;46.30;33.97;;;21.20;87.40;;;;;;5102612;28;20196;-65
2023/10/13 07:37:28;;;;;;;45.70;32.70;;;21.20;86.90;;;;;;5103624;28;20212;-65
2023/10/13 07:39:58;;;;;;;48.77;31.87;;;21.30;86.80;;;;;;5106454;28;20204;-66
2023/10/13 07:42:31;;;;;;;42.50;30.43;;;21.40;86.70;;;;;;5109395;28;20192;-66
2023/10/13 07:44:59;;;;;;;39.83;28.93;;;21.50;86.40;;;;;;5108572;28;20232;-66
2023/10/13 07:47:27;;;;;;;42.53;30.43;;;21.70;86.00;;;;;;5106619;28;20200;-65
2023/10/13 07:49:56;;;;;;;42.57;27.67;;;21.90;85.50;;;;;;5107056;28;20196;-65
2023/10/13 07:52:26;;;;;;;40.87;26.97;;;22.00;84.80;;;;;;5103945;28;20229;-65
2023/10/13 07:55:10;;;;;;;36.17;25.47;;;22.10;84.10;;;;;;5108214;28;20208;-65
2023/10/13 07:57:58;;;;;;;41.47;27.17;;;22.30;83.50;;;;;;5106335;28;20289;-64
2023/10/13 08:00:38;;;;;;;36.30;24.90;;;22.40;83.10;;;;;;5105890;28;20185;-66
2023/10/13 08:05:58;;;;;;;32.30;24.50;;;22.70;82.00;;;;;;5109593;28;20248;-65
2023/10/13 08:08:40;;;;;;;36.97;25.40;;;22.80;81.50;;;;;;5104372;28;20205;-64
2023/10/13 08:11:25;;;;;;;33.60;23.10;;;22.80;81.20;;;;;;5108584;28;20219;-65
2023/10/13 08:13:59;;;;;;;30.40;23.13;;;22.80;81.00;;;;;;5099992;28;20196;-64
2023/10/13 08:16:46;;;;;;;40.00;26.30;;;22.90;81.00;;;;;;5105915;28;20223;-65
2023/10/13 08:19:18;;;;;;;36.70;26.13;;;22.90;80.70;;;;;;5105287;28;20184;-64
2023/10/13 08:21:57;;;;;;;44.43;28.47;;;23.00;80.60;;;;;;5108361;28;20203;-64
2023/10/13 08:43:10;;;;;;;37.97;28.33;;;23.80;78.70;;;;;;5105151;28;20197;-65
2023/10/13 08:53:27;;;;;;;38.50;28.70;;;23.80;78.80;;;;;;5104515;28;20255;-64
2023/10/13 09:13:00;;;;;;;42.77;28.80;;;23.90;78.90;;;;;;5102418;28;20204;-64
2023/10/13 09:18:47;;;;;;;42.07;29.47;;;24.00;78.70;;;;;;5102495;28;20654;-64
2023/10/13 09:24:27;;;;;;;41.00;28.33;;;24.10;78.50;;;;;;5101294;28;20200;-65
2023/10/13 09:26:55;;;;;;;42.63;28.03;;;24.10;78.50;;;;;;5104411;28;20212;-65
2023/10/13 09:29:24;;;;;;;39.80;28.87;;;24.10;78.30;;;;;;5105906;28;20205;-66
2023/10/13 09:32:03;;;;;;;39.23;28.50;;;24.20;78.10;;;;;;5107331;28;20207;-66
2023/10/13 09:34:40;;;;;;;40.30;26.07;;;24.20;77.80;;;;;;5106137;28;20320;-65
2023/10/13 09:37:11;;;;;;;42.80;28.23;;;24.30;78.10;;;;;;5103981;28;20646;-66
2023/10/13 09:39:44;;;;;;;42.70;27.50;;;24.30;78.20;;;;;;5104482;28;20250;-65
2023/10/13 09:42:13;;;;;;;44.03;28.63;;;24.40;78.30;;;;;;5108699;28;20190;-65
2023/10/13 09:44:49;;;;;;;41.03;28.37;;;24.50;78.20;;;;;;5104805;28;20196;-64
2023/10/13 09:47:29;;;;;;;46.07;27.57;;;24.60;78.10;;;;;;5100462;28;20220;-65
2023/10/13 09:50:05;;;;;;;44.13;30.17;;;24.70;77.80;;;;;;5103187;28;20196;-64
2023/10/13 09:52:33;;;;;;;44.90;29.87;;;24.80;77.60;;;;;;5103351;28;20269;-65
2023/10/13 09:55:22;;;;;;;42.17;28.30;;;25.00;77.20;;;;;;5104593;28;20219;-64
2023/10/13 09:57:59;;;;;;;43.97;29.87;;;25.10;76.90;;;;;;5101337;28;20583;-65
2023/10/13 10:03:19;;;;;;;41.07;28.50;;;25.30;75.60;;;;;;5101157;28;20293;-66
2023/10/13 10:06:13;;;;;;;37.90;26.17;;;25.40;75.30;;;;;;5104779;28;20587;-66
2023/10/13 10:08:50;;;;;;;46.07;28.37;;;25.50;75.00;;;;;;5098447;28;20636;-64
2023/10/13 10:11:40;;;;;;;39.77;27.73;;;25.60;74.80;;;;;;5101093;28;20624;-65
2023/10/13 10:14:17;;;;;;;40.83;26.20;;;25.70;74.40;;;;;;5104268;28;20511;-65
2023/10/13 10:17:00;;;;;;;38.43;26.10;;;25.80;74.20;;;;;;5100233;28;20211;-63
2023/10/13 10:19:35;;;;;;;35.80;24.97;;;25.90;73.90;;;;;;5099266;28;20198;-64
2023/10/13 10:22:16;;;;;;;36.33;26.57;;;26.00;73.60;;;;;;5098613;28;20223;-63
2023/10/13 10:24:44;;;;;;;36.10;26.57;;;26.10;72.90;;;;;;5102006;28;20676;-64
2023/10/13 10:27:14;;;;;;;40.33;25.47;;;26.20;72.70;;;;;;5100019;28;20205;-64
2023/10/13 10:29:54;;;;;;;42.50;26.03;;;26.30;72.70;;;;;;5102230;28;20231;-65
2023/10/13 10:32:21;;;;;;;30.90;23.47;;;26.40;72.10;;;;;;5105279;28;20203;-65
2023/10/13 10:34:48;;;;;;;43.37;24.90;;;26.50;71.70;;;;;;5102169;28;20241;-65
2023/10/13 10:37:16;;;;;;;33.20;23.23;;;26.50;71.40;;;;;;5100376;28;20282;-65
2023/10/13 10:39:46;;;;;;;34.97;22.13;;;26.60;71.20;;;;;;5102757;28;20284;-64
2023/10/13 10:42:23;;;;;;;27.73;18.67;;;26.60;71.00;;;;;;5101903;28;20203;-65
2023/10/13 10:44:55;;;;;;;24.17;18.10;;;26.70;70.70;;;;;;5100080;28;20204;-65
2023/10/13 10:47:32;;;;;;;22.13;15.87;;;26.70;70.30;;;;;;5098433;28;20221;-66
2023/10/13 10:50:07;;;;;;;20.50;15.70;;;26.70;70.10;;;;;;5099665;28;20293;-64
2023/10/13 10:52:39;;;;;;;25.77;14.93;;;26.70;70.00;;;;;;5105553;28;20257;-64
2023/10/13 10:55:07;;;;;;;21.13;15.20;;;26.70;70.00;;;;;;5102518;28;20204;-65
2023/10/13 10:57:37;;;;;;;27.17;17.77;;;26.80;70.10;;;;;;5106374;28;20240;-65
2023/10/13 11:00:11;;;;;;;20.73;14.03;;;26.90;69.70;;;;;;5107816;28;20295;-66
2023/10/13 11:02:38;;;;;;;23.40;14.90;;;27.00;69.20;;;;;;5102964;28;20252;-65
2023/10/13 11:05:17;;;;;;;20.40;15.10;;;27.10;68.80;;;;;;5104597;28;20205;-65
2023/10/13 11:07:52;;;;;;;25.43;16.33;;;27.20;68.50;;;;;;5105087;28;20268;-65
2023/10/13 11:10:27;;;;;;;25.47;16.63;;;27.30;68.10;;;;;;5102963;28;20622;-65
2023/10/13 11:13:21;;;;;;;27.83;16.87;;;27.40;68.00;;;;;;5106656;28;20204;-65
2023/10/13 11:15:50;;;;;;;21.53;16.70;;;27.50;67.30;;;;;;5106358;28;20211;-64
2023/10/13 11:18:23;;;;;;;22.27;14.50;;;27.70;66.90;;;;;;5110444;28;20205;-65
2023/10/13 11:20:56;;;;;;;17.23;14.70;;;27.70;65.80;;;;;;5106074;28;20267;-65
2023/10/13 11:23:25;;;;;;;21.10;14.53;;;27.80;65.40;;;;;;5111220;28;20246;-66
2023/10/13 11:25:59;;;;;;;20.43;13.60;;;27.80;65.50;;;;;;5099967;28;20189;-65
2023/10/13 11:28:27;;;;;;;18.10;12.90;;;27.80;65.40;;;;;;5104337;28;20202;-66
2023/10/13 11:30:58;;;;;;;16.47;12.63;;;27.90;65.20;;;;;;5097587;28;20220;-66
2023/10/13 11:33:28;;;;;;;21.50;12.47;;;28.00;64.90;;;;;;5104979;28;20200;-65
2023/10/13 11:35:56;;;;;;;24.00;14.30;;;28.10;63.50;;;;;;5099793;28;20531;-66
2023/10/13 11:41:08;;;;;;;14.73;11.30;;;28.10;63.10;;;;;;5108929;28;20250;-66
2023/10/13 11:48:43;;;;;;;18.47;12.70;;;28.40;62.90;;;;;;5099054;28;20207;-66
2023/10/13 11:51:17;;;;;;;17.27;12.87;;;28.40;62.50;;;;;;5100239;28;20297;-65
2023/10/13 11:53:45;;;;;;;20.13;12.97;;;28.50;62.30;;;;;;5108290;28;20239;-65
2023/10/13 11:56:12;;;;;;;17.87;13.10;;;28.40;61.90;;;;;;5113531;28;20193;-65
2023/10/13 11:58:40;;;;;;;16.60;12.77;;;28.50;61.80;;;;;;5101279;28;20278;-66
2023/10/13 12:11:45;;;;;;;19.97;12.87;;;28.20;62.40;;;;;;5107521;28;20208;-65
2023/10/13 12:14:27;;;;;;;20.13;14.23;;;28.20;61.70;;;;;;5105217;28;20281;-65
2023/10/13 12:16:55;;;;;;;15.77;11.27;;;28.20;61.00;;;;;;5100967;28;20212;-65
2023/10/13 12:19:24;;;;;;;13.43;11.30;;;28.20;61.30;;;;;;5105495;28;20287;-65
2023/10/13 12:21:55;;;;;;;17.17;11.77;;;28.10;61.50;;;;;;5104251;28;20194;-65
2023/10/13 12:27:19;;;;;;;16.03;11.80;;;28.10;60.90;;;;;;5100827;28;20215;-65
2023/10/13 12:29:53;;;;;;;17.10;9.93;;;28.10;60.60;;;;;;5105131;28;20250;-65
2023/10/13 12:32:25;;;;;;;12.73;9.67;;;28.10;60.70;;;;;;5104889;28;20267;-64
2023/10/13 12:51:40;;;;;;;13.77;10.00;;;27.40;62.20;;;;;;5099596;28;20262;-64
2023/10/13 12:54:14;;;;;;;18.47;9.63;;;27.30;62.20;;;;;;5105122;28;20201;-63
2023/10/13 12:56:45;;;;;;;16.00;9.13;;;27.10;62.00;;;;;;5099467;28;20208;-64
2023/10/13 12:59:17;;;;;;;11.83;9.93;;;27.10;62.40;;;;;;5099762;28;20243;-65
2023/10/13 13:01:44;;;;;;;13.37;9.17;;;27.10;62.30;;;;;;5098842;28;20204;-65
2023/10/13 13:04:18;;;;;;;12.63;10.07;;;27.00;62.30;;;;;;5102150;28;20196;-65
2023/10/13 13:06:53;;;;;;;11.27;8.53;;;26.90;62.30;;;;;;5100812;28;20274;-65
2023/10/13 13:09:26;;;;;;;13.93;9.53;;;26.90;62.90;;;;;;5101064;28;20209;-65
2023/10/13 13:11:57;;;;;;;12.10;8.00;;;26.80;63.00;;;;;;5100505;28;20209;-65
2023/10/13 13:14:28;;;;;;;11.90;9.57;;;26.70;62.90;;;;;;5100457;28;20204;-65
2023/10/13 13:17:14;;;;;;;15.30;10.00;;;26.70;62.90;;;;;;5102230;28;20208;-65
2023/10/13 13:19:42;;;;;;;13.90;8.83;;;26.80;62.70;;;;;;5106248;28;20298;-64
2023/10/13 13:22:11;;;;;;;13.03;9.80;;;26.90;62.90;;;;;;5101081;28;20240;-65
2023/10/13 13:24:43;;;;;;;13.07;9.30;;;27.00;62.20;;;;;;5108340;28;20711;-64
2023/10/13 13:27:19;;;;;;;13.60;8.50;;;27.10;61.70;;;;;;5083223;28;20204;-63
2023/10/13 13:29:46;;;;;;;16.93;10.43;;;27.20;61.20;;;;;;5100508;28;20260;-63
2023/10/13 13:32:18;;;;;;;13.63;9.43;;;27.30;60.60;;;;;;5099400;28;20239;-63
2023/10/13 13:34:54;;;;;;;12.63;8.80;;;27.30;60.30;;;;;;5103148;28;20221;-63
2023/10/13 13:37:22;;;;;;;14.40;10.87;;;27.30;60.40;;;;;;5096902;28;20235;-63
2023/10/13 13:39:52;;;;;;;16.53;10.10;;;27.30;60.10;;;;;;5104968;28;20223;-61
2023/10/13 13:42:20;;;;;;;13.00;9.20;;;27.40;60.10;;;;;;5101505;28;20229;-64
2023/10/13 13:44:47;;;;;;;17.17;9.17;;;27.40;60.30;;;;;;5100284;28;20196;-64
2023/10/13 13:47:15;;;;;;;15.87;10.10;;;27.50;60.60;;;;;;5098685;28;20622;-62
2023/10/13 13:49:51;;;;;;;14.70;9.70;;;27.50;60.40;;;;;;5106269;28;20193;-65
2023/10/13 13:52:27;;;;;;;15.77;9.60;;;27.50;60.10;;;;;;5099689;28;20245;-66
2023/10/13 13:54:54;;;;;;;15.30;10.37;;;27.60;60.00;;;;;;5103397;28;20280;-64
2023/10/13 13:57:24;;;;;;;11.80;9.57;;;27.60;60.00;;;;;;5106978;28;20623;-64
2023/10/13 13:59:52;;;;;;;19.10;10.43;;;27.60;60.00;;;;;;5103722;28;20266;-65
2023/10/13 14:02:19;;;;;;;13.53;9.33;;;27.50;59.80;;;;;;5103706;28;20193;-63
2023/10/13 14:04:50;;;;;;;15.90;9.93;;;27.50;59.90;;;;;;5103695;28;20254;-63
2023/10/13 14:07:19;;;;;;;11.40;9.03;;;27.50;60.30;;;;;;5101351;28;20193;-65
2023/10/13 14:09:51;;;;;;;12.53;10.73;;;27.50;60.60;;;;;;5100951;28;20582;-65
2023/10/13 14:12:41;;;;;;;15.50;9.83;;;27.40;60.30;;;;;;5105408;28;20659;-65
2023/10/13 14:15:19;;;;;;;16.50;10.53;;;27.40;60.00;;;;;;5104396;28;20189;-65
2023/10/13 14:17:49;;;;;;;15.53;9.87;;;27.40;60.10;;;;;;5099023;28;20192;-65
2023/10/13 14:20:19;;;;;;;12.63;9.23;;;27.40;60.30;;;;;;5100979;28;20193;-64
2023/10/13 14:22:52;;;;;;;14.00;8.50;;;27.40;60.20;;;;;;5106306;28;20276;-64
2023/10/13 14:25:24;;;;;;;13.17;10.07;;;27.30;60.20;;;;;;5104377;28;20203;-65
2023/10/13 14:27:51;;;;;;;12.43;8.13;;;27.30;60.00;;;;;;5098354;28;20196;-65
2023/10/13 14:30:21;;;;;;;15.20;8.80;;;27.30;60.20;;;;;;5105508;28;20211;-65
2023/10/13 14:32:48;;;;;;;14.17;8.80;;;27.30;60.50;;;;;;5106875;28;20542;-65
2023/10/13 14:35:16;;;;;;;17.83;8.90;;;27.20;60.60;;;;;;5109461;28;20618;-64
2023/10/13 14:37:42;;;;;;;17.47;9.17;;;27.20;60.60;;;;;;5103677;28;20572;-64
2023/10/13 14:40:15;;;;;;;16.03;9.63;;;27.20;60.60;;;;;;5101155;28;20205;-64
2023/10/13 14:42:42;;;;;;;10.70;8.77;;;27.10;60.50;;;;;;5104722;28;20201;-64
2023/10/13 14:45:12;;;;;;;21.23;10.00;;;27.10;60.30;;;;;;5107003;28;20227;-64
2023/10/13 14:47:41;;;;;;;11.83;8.73;;;27.00;60.30;;;;;;5100656;28;20629;-65
2023/10/13 14:50:22;;;;;;;10.70;9.07;;;27.00;60.60;;;;;;5106305;27;20214;-65
2023/10/13 14:52:51;;;;;;;14.93;9.07;;;26.90;60.90;;;;;;5099922;28;20245;-65
2023/10/13 14:55:37;;;;;;;12.23;8.83;;;26.90;61.10;;;;;;5103079;27;20196;-64
2023/10/13 14:58:07;;;;;;;17.20;10.03;;;26.90;61.40;;;;;;5106665;28;20223;-63
2023/10/13 15:00:34;;;;;;;12.13;7.90;;;26.80;61.20;;;;;;5111629;28;20267;-64
2023/10/13 15:03:06;;;;;;;15.57;8.50;;;26.80;61.00;;;;;;5091732;28;20210;-65
2023/10/13 15:05:38;;;;;;;13.43;9.00;;;26.80;61.10;;;;;;5104705;28;20189;-65
2023/10/13 15:08:06;;;;;;;13.97;9.57;;;26.70;61.20;;;;;;5104004;28;20615;-65
2023/10/13 15:10:36;;;;;;;11.90;8.57;;;26.70;61.60;;;;;;5108088;28;20196;-65
2023/10/13 15:13:05;;;;;;;12.10;8.40;;;26.60;61.80;;;;;;5103712;28;20221;-64
2023/10/13 15:15:32;;;;;;;14.50;8.77;;;26.60;62.30;;;;;;5107093;28;20597;-64
2023/10/13 15:17:59;;;;;;;12.97;7.93;;;26.50;62.80;;;;;;5107075;28;20212;-64
2023/10/13 15:20:26;;;;;;;14.63;9.20;;;26.50;63.10;;;;;;5099871;28;20214;-65
2023/10/13 15:22:59;;;;;;;14.30;9.90;;;26.50;63.10;;;;;;5104295;28;20220;-65
2023/10/13 15:25:38;;;;;;;11.97;8.17;;;26.40;63.40;;;;;;5105439;28;20211;-65
2023/10/13 15:28:09;;;;;;;9.63;8.13;;;26.30;62.60;;;;;;5103567;28;20233;-65
2023/10/13 15:30:44;;;;;;;12.03;8.73;;;26.30;62.80;;;;;;5112900;28;20193;-65
2023/10/13 15:33:12;;;;;;;13.43;9.00;;;26.30;62.60;;;;;;5105332;27;20201;-65
2023/10/13 15:35:43;;;;;;;10.13;8.13;;;26.20;62.60;;;;;;5106039;28;20208;-65
2023/10/13 15:38:12;;;;;;;20.83;9.93;;;26.20;62.60;;;;;;5097303;28;20207;-64
2023/10/13 15:40:45;;;;;;;10.30;7.97;;;26.10;62.60;;;;;;5103424;28;20252;-64
2023/10/13 15:43:13;;;;;;;12.63;8.50;;;26.10;62.90;;;;;;5102507;28;20280;-64
2023/10/13 15:45:42;;;;;;;11.27;8.33;;;26.00;63.10;;;;;;5100908;28;20212;-65
2023/10/13 15:48:14;;;;;;;17.17;9.80;;;25.90;63.30;;;;;;5101738;28;20278;-65
2023/10/13 15:50:49;;;;;;;18.67;9.93;;;25.90;63.60;;;;;;5103870;28;20630;-64
2023/10/13 15:53:17;;;;;;;14.93;8.80;;;25.90;63.70;;;;;;5101304;28;20197;-64
2023/10/13 15:55:45;;;;;;;15.30;9.10;;;25.80;63.90;;;;;;5103942;28;20185;-64
2023/10/13 15:58:13;;;;;;;11.77;8.77;;;25.70;64.10;;;;;;5098668;28;20215;-65
2023/10/13 16:00:40;;;;;;;14.73;8.63;;;25.70;64.20;;;;;;5103389;28;20281;-65
2023/10/13 16:03:11;;;;;;;13.53;9.27;;;25.60;64.40;;;;;;5102483;28;20254;-65
2023/10/13 16:05:42;;;;;;;14.37;9.77;;;25.60;64.60;;;;;;5101219;28;20207;-65
2023/10/13 16:08:13;;;;;;;12.47;9.73;;;25.50;64.90;;;;;;5100829;28;20212;-65
2023/10/13 16:10:41;;;;;;;11.63;8.70;;;25.40;65.10;;;;;;5105018;28;20625;-64
2023/10/13 16:13:19;;;;;;;15.43;9.30;;;25.40;65.20;;;;;;5103066;28;20197;-64
2023/10/13 16:15:47;;;;;;;12.77;8.57;;;25.30;65.30;;;;;;5103037;28;20224;-64
2023/10/13 16:18:20;;;;;;;13.87;9.43;;;25.20;65.40;;;;;;5108759;28;20543;-64
2023/10/13 16:20:50;;;;;;;15.07;9.33;;;25.20;65.50;;;;;;5106478;28;20204;-64
2023/10/13 16:23:18;;;;;;;15.83;10.27;;;25.20;65.60;;;;;;5102478;28;20197;-64
2023/10/13 16:25:45;;;;;;;18.20;9.63;;;25.10;65.60;;;;;;5102381;28;20495;-64
2023/10/13 16:28:12;;;;;;;14.47;9.53;;;25.00;65.70;;;;;;5100136;28;20198;-65
2023/10/13 16:30:39;;;;;;;19.47;9.37;;;24.90;66.00;;;;;;5108450;28;20203;-65
2023/10/13 16:33:06;;;;;;;14.47;9.87;;;24.90;66.40;;;;;;5103083;28;20295;-65
2023/10/13 16:35:33;;;;;;;15.57;9.47;;;24.80;66.70;;;;;;5099957;28;20211;-65
2023/10/13 16:38:06;;;;;;;14.13;8.70;;;24.70;67.00;;;;;;5084622;28;20538;-65
2023/10/13 16:40:33;;;;;;;18.47;9.63;;;24.60;67.60;;;;;;5086438;28;20517;-65
2023/10/13 16:43:00;;;;;;;10.67;8.43;;;24.50;68.10;;;;;;5102625;28;20192;-65
2023/10/13 16:45:31;;;;;;;20.13;8.73;;;24.40;68.50;;;;;;5106599;28;20204;-65
2023/10/13 16:47:59;;;;;;;13.77;10.00;;;24.30;69.10;;;;;;5110503;28;20192;-65
2023/10/13 16:50:28;;;;;;;20.23;9.40;;;24.20;69.50;;;;;;5104899;28;20192;-65
2023/10/13 16:52:56;;;;;;;23.37;11.10;;;24.20;69.90;;;;;;5101051;28;20550;-65